Time;durP1;ratioP1;P1;durP2;ratioP2;P2;SDS_P1;SDS_P2;PMS_P1;PMS_P2;Temp;Humidity;BMP_temperature;BMP_pressure;BME280_temperature;BME280_humidity;BME280_pressure;Samples;Min_cycle;Max_cycle;Signal;HPM_P1;HPM_P2
2022/05/13 00:00:16;;;;;;;8.18;1.25;;;13.10;99.90;;;;;;5081591;28;20067;-64
2022/05/13 00:02:43;;;;;;;8.85;1.40;;;13.20;99.90;;;;;;5098281;28;20403;-63
2022/05/13 00:05:10;;;;;;;5.22;1.20;;;13.10;99.90;;;;;;5099387;28;20391;-63
2022/05/13 00:07:36;;;;;;;6.80;1.40;;;13.00;99.90;;;;;;5099103;28;20032;-63
2022/05/13 00:10:05;;;;;;;7.18;1.15;;;12.90;99.90;;;;;;5098272;28;20032;-63
2022/05/13 00:12:35;;;;;;;6.30;1.38;;;12.90;99.90;;;;;;5098132;28;20032;-63
2022/05/13 00:15:02;;;;;;;10.32;1.45;;;12.90;99.90;;;;;;5098851;28;20028;-63
2022/05/13 00:17:28;;;;;;;7.25;1.60;;;12.90;99.90;;;;;;5098823;28;20371;-62
2022/05/13 00:19:55;;;;;;;6.03;1.27;;;12.80;99.90;;;;;;5098186;28;20345;-64
2022/05/13 00:22:21;;;;;;;5.07;1.25;;;12.70;99.90;;;;;;5098739;28;20073;-63
2022/05/13 00:24:47;;;;;;;11.65;1.63;;;12.60;99.90;;;;;;5099081;28;20085;-64
2022/05/13 00:27:13;;;;;;;6.07;1.10;;;12.60;99.90;;;;;;5097986;28;20072;-63
2022/05/13 00:29:39;;;;;;;4.00;1.27;;;12.50;99.90;;;;;;5099164;28;20469;-62
2022/05/13 00:32:06;;;;;;;4.53;1.13;;;12.50;99.90;;;;;;5098537;28;20024;-63
2022/05/13 00:34:33;;;;;;;7.95;1.35;;;12.50;99.90;;;;;;5098091;28;20131;-62
2022/05/13 00:36:59;;;;;;;7.38;1.60;;;12.50;99.90;;;;;;5098306;28;20038;-62
2022/05/13 00:39:26;;;;;;;6.72;1.40;;;12.50;99.90;;;;;;5098445;28;20300;-62
2022/05/13 00:41:53;;;;;;;7.10;1.33;;;12.40;99.90;;;;;;5098331;28;20081;-65
2022/05/13 00:44:19;;;;;;;7.90;1.85;;;12.50;99.90;;;;;;5098279;28;20024;-63
2022/05/13 00:46:45;;;;;;;6.53;1.33;;;12.40;99.90;;;;;;5098214;28;20453;-64
2022/05/13 00:49:15;;;;;;;7.40;1.70;;;12.50;99.90;;;;;;5097657;28;20123;-64
2022/05/13 00:51:47;;;;;;;5.05;1.25;;;12.50;99.90;;;;;;5097427;28;20111;-63
2022/05/13 00:54:16;;;;;;;7.07;1.40;;;12.40;99.90;;;;;;5098224;28;20034;-63
2022/05/13 00:56:44;;;;;;;6.03;1.55;;;12.30;99.90;;;;;;5098094;28;20035;-63
2022/05/13 00:59:14;;;;;;;6.55;1.23;;;12.30;99.90;;;;;;5098132;28;20024;-64
2022/05/13 01:01:40;;;;;;;7.35;1.65;;;12.20;99.90;;;;;;5098144;28;20434;-64
2022/05/13 01:04:10;;;;;;;7.68;1.58;;;12.10;99.90;;;;;;5098574;28;20052;-63
2022/05/13 01:06:37;;;;;;;7.07;1.65;;;12.10;99.90;;;;;;5097888;28;20042;-63
2022/05/13 01:09:03;;;;;;;7.57;2.15;;;12.10;99.90;;;;;;5096871;28;20357;-64
2022/05/13 01:11:33;;;;;;;9.60;2.50;;;12.10;99.90;;;;;;5080094;28;20032;-62
2022/05/13 01:14:04;;;;;;;8.38;1.60;;;12.10;99.90;;;;;;5097729;28;20035;-63
2022/05/13 01:18:04;;;;;;;7.32;1.80;;;12.00;99.90;;;;;;5097684;28;20040;-63
2022/05/13 01:19:16;;;;;;;6.07;1.40;;;12.10;99.90;;;;;;5098563;28;20406;-63
2022/05/13 01:21:42;;;;;;;8.88;2.10;;;12.20;99.90;;;;;;5097521;28;20032;-62
2022/05/13 01:24:08;;;;;;;8.43;1.77;;;12.20;99.90;;;;;;5098132;28;20118;-63
2022/05/13 01:26:35;;;;;;;7.57;2.10;;;12.10;99.90;;;;;;5097734;28;20391;-62
2022/05/13 01:29:02;;;;;;;6.93;2.13;;;12.10;99.90;;;;;;5097488;28;20056;-62
2022/05/13 01:31:34;;;;;;;7.38;1.80;;;12.20;99.90;;;;;;5097321;28;20036;-63
2022/05/13 01:34:02;;;;;;;7.90;2.00;;;12.30;99.90;;;;;;5097514;28;20292;-64
2022/05/13 01:36:29;;;;;;;10.55;2.17;;;12.50;99.90;;;;;;5097333;28;20123;-63
2022/05/13 01:38:55;;;;;;;11.07;2.03;;;12.60;99.90;;;;;;5097387;28;20048;-63
2022/05/13 01:41:22;;;;;;;14.15;2.00;;;12.60;99.90;;;;;;5097462;28;20024;-63
2022/05/13 01:43:50;;;;;;;10.10;1.90;;;12.50;99.90;;;;;;5097327;28;20111;-63
2022/05/13 01:46:17;;;;;;;7.15;1.80;;;12.40;99.90;;;;;;5097189;28;20094;-64
2022/05/13 01:48:43;;;;;;;5.82;1.40;;;12.40;99.90;;;;;;5097770;28;20397;-63
2022/05/13 01:51:09;;;;;;;9.05;2.10;;;12.50;99.90;;;;;;5096923;28;20133;-63
2022/05/13 01:53:36;;;;;;;8.02;1.95;;;12.40;99.90;;;;;;5097150;28;20047;-63
2022/05/13 01:56:02;;;;;;;6.07;1.70;;;12.40;99.90;;;;;;5097056;28;20020;-63
2022/05/13 01:58:28;;;;;;;5.45;1.55;;;12.20;99.90;;;;;;5097066;28;20036;-63
2022/05/13 02:00:56;;;;;;;10.13;1.90;;;12.20;99.90;;;;;;5096998;28;20464;-63
2022/05/13 02:06:07;;;;;;;11.15;2.35;;;12.30;99.90;;;;;;5096681;28;20040;-64
2022/05/13 02:08:34;;;;;;;10.43;2.05;;;12.40;99.90;;;;;;5096972;28;20048;-64
2022/05/13 02:11:01;;;;;;;8.35;1.70;;;12.40;99.90;;;;;;5095949;28;20020;-63
2022/05/13 02:13:27;;;;;;;8.38;1.83;;;12.30;99.90;;;;;;5096876;28;20300;-63
2022/05/13 02:15:53;;;;;;;4.82;1.52;;;12.30;99.90;;;;;;5096871;28;20020;-64
2022/05/13 02:18:20;;;;;;;9.40;2.03;;;12.20;99.90;;;;;;5096933;28;20024;-64
2022/05/13 02:20:47;;;;;;;8.65;2.25;;;12.10;99.90;;;;;;5100765;28;20039;-64
2022/05/13 02:23:13;;;;;;;10.73;2.20;;;12.00;99.90;;;;;;5101037;28;20280;-64
2022/05/13 02:25:39;;;;;;;10.23;2.15;;;12.00;99.90;;;;;;5101208;28;20032;-64
2022/05/13 02:28:06;;;;;;;14.57;2.60;;;12.00;99.90;;;;;;5100917;28;20028;-63
2022/05/13 02:30:32;;;;;;;9.02;2.13;;;12.00;99.90;;;;;;5101109;28;20376;-63
2022/05/13 02:32:58;;;;;;;7.50;2.30;;;11.80;99.90;;;;;;5100781;28;20039;-64
2022/05/13 02:35:25;;;;;;;10.05;2.50;;;11.60;99.90;;;;;;5100853;28;20097;-64
2022/05/13 02:37:52;;;;;;;9.90;2.08;;;11.60;99.90;;;;;;5100796;28;20035;-64
2022/05/13 02:40:18;;;;;;;9.95;2.35;;;11.60;99.90;;;;;;5100682;28;20327;-63
2022/05/13 02:42:44;;;;;;;13.98;2.90;;;11.50;99.90;;;;;;5100748;28;20036;-63
2022/05/13 02:45:10;;;;;;;9.93;2.47;;;11.50;99.90;;;;;;5101166;28;20040;-64
2022/05/13 02:47:40;;;;;;;8.18;2.42;;;11.40;99.90;;;;;;5100598;28;20055;-65
2022/05/13 02:50:17;;;;;;;10.77;2.72;;;11.50;99.90;;;;;;5100333;28;20052;-65
2022/05/13 02:52:44;;;;;;;10.40;2.65;;;11.50;99.90;;;;;;5100560;28;20024;-65
2022/05/13 02:55:10;;;;;;;11.23;2.67;;;11.40;99.90;;;;;;5100477;28;20031;-64
2022/05/13 02:57:36;;;;;;;7.93;2.20;;;11.40;99.90;;;;;;5099770;28;20032;-64
2022/05/13 03:00:04;;;;;;;8.00;2.03;;;11.30;99.90;;;;;;5100218;28;20333;-64
2022/05/13 03:02:30;;;;;;;9.20;2.20;;;11.30;99.90;;;;;;5100257;28;20071;-64
2022/05/13 03:04:56;;;;;;;13.18;2.80;;;11.30;99.90;;;;;;5100256;28;20438;-65
2022/05/13 03:07:22;;;;;;;9.98;2.13;;;11.30;99.90;;;;;;5100161;28;20051;-65
2022/05/13 03:09:47;;;;;;;9.63;2.17;;;11.50;99.90;;;;;;5100487;28;20148;-64
2022/05/13 03:12:13;;;;;;;10.55;2.78;;;11.60;99.90;;;;;;5100084;28;20181;-64
2022/05/13 03:14:39;;;;;;;11.38;2.80;;;11.80;99.90;;;;;;5100057;28;20066;-64
2022/05/13 03:17:06;;;;;;;11.88;2.63;;;11.80;99.90;;;;;;5099441;28;20024;-65
2022/05/13 03:19:31;;;;;;;11.40;2.60;;;11.90;99.90;;;;;;5099321;28;20061;-64
2022/05/13 03:21:57;;;;;;;11.15;2.40;;;11.90;99.90;;;;;;5099839;28;20388;-64
2022/05/13 03:24:23;;;;;;;13.93;2.30;;;11.70;99.90;;;;;;5100792;28;20115;-64
2022/05/13 03:26:49;;;;;;;9.75;2.38;;;11.60;99.90;;;;;;5100056;28;20028;-65
2022/05/13 03:29:15;;;;;;;8.52;2.22;;;11.60;99.90;;;;;;5099774;28;20020;-64
2022/05/13 03:31:41;;;;;;;7.47;2.28;;;11.60;99.90;;;;;;5098438;28;20058;-64
2022/05/13 03:34:07;;;;;;;9.55;2.70;;;11.50;99.90;;;;;;5100050;28;20102;-64
2022/05/13 03:36:33;;;;;;;8.80;2.38;;;11.40;99.90;;;;;;5100006;28;20024;-63
2022/05/13 03:38:59;;;;;;;10.35;2.50;;;11.20;99.90;;;;;;5099817;28;20161;-64
2022/05/13 03:41:25;;;;;;;11.18;2.60;;;11.20;99.90;;;;;;5099750;28;20032;-63
2022/05/13 03:43:50;;;;;;;10.48;2.40;;;11.20;99.90;;;;;;5099778;28;20035;-64
2022/05/13 03:46:16;;;;;;;9.52;2.42;;;11.20;99.90;;;;;;5099413;28;20028;-63
2022/05/13 03:48:43;;;;;;;11.18;2.55;;;11.30;99.90;;;;;;5098665;28;20036;-63
2022/05/13 03:51:08;;;;;;;9.20;2.20;;;11.10;99.90;;;;;;5099465;28;20055;-63
2022/05/13 03:53:34;;;;;;;8.18;2.30;;;11.10;99.90;;;;;;5081871;28;20035;-63
2022/05/13 03:56:00;;;;;;;5.43;1.67;;;11.10;99.90;;;;;;5099631;28;20020;-64
2022/05/13 03:58:26;;;;;;;10.52;2.20;;;11.10;99.90;;;;;;5099185;28;20108;-63
2022/05/13 04:00:52;;;;;;;9.43;2.20;;;11.00;99.90;;;;;;5099088;28;20107;-64
2022/05/13 04:03:19;;;;;;;9.30;2.40;;;11.00;99.90;;;;;;5099019;28;20341;-63
2022/05/13 04:11:15;;;;;;;11.25;2.50;;;11.00;99.90;;;;;;5098035;28;20101;-62
2022/05/13 04:16:26;;;;;;;8.70;2.53;;;11.10;99.90;;;;;;5098444;28;20036;-63
2022/05/13 04:18:53;;;;;;;11.60;3.28;;;11.10;99.90;;;;;;5098883;28;20039;-63
2022/05/13 04:21:22;;;;;;;12.60;2.63;;;11.20;99.90;;;;;;5099467;28;20409;-63
2022/05/13 04:23:52;;;;;;;11.30;2.75;;;11.10;99.90;;;;;;5081079;28;20060;-63
2022/05/13 04:26:18;;;;;;;10.70;2.80;;;11.10;99.90;;;;;;5098929;28;20122;-63
2022/05/13 04:28:47;;;;;;;7.65;2.13;;;11.20;99.90;;;;;;5098630;28;20337;-63
2022/05/13 04:31:15;;;;;;;13.45;2.60;;;11.20;99.90;;;;;;5098458;28;20050;-63
2022/05/13 04:33:41;;;;;;;14.15;2.58;;;11.20;99.90;;;;;;5098578;28;20028;-63
2022/05/13 04:36:08;;;;;;;9.38;2.85;;;11.30;99.90;;;;;;5097734;28;20036;-63
2022/05/13 04:38:35;;;;;;;8.57;2.53;;;11.40;99.90;;;;;;5098415;28;20028;-63
2022/05/13 04:42:49;;;;;;;11.07;2.70;;;11.40;99.90;;;;;;5097554;28;20097;-63
2022/05/13 04:43:48;;;;;;;11.57;2.75;;;11.40;99.90;;;;;;5098120;28;20411;-64
2022/05/13 04:46:14;;;;;;;11.05;2.40;;;11.40;99.90;;;;;;5097490;28;20020;-63
2022/05/13 04:48:41;;;;;;;11.52;2.88;;;11.40;99.90;;;;;;5098189;28;20036;-64
2022/05/13 04:51:07;;;;;;;10.55;3.00;;;11.40;99.90;;;;;;5097970;28;20374;-63
2022/05/13 04:53:37;;;;;;;10.00;3.00;;;11.50;99.90;;;;;;5080677;28;20036;-64
2022/05/13 04:56:05;;;;;;;13.85;3.38;;;11.50;99.90;;;;;;5098134;28;20173;-63
2022/05/13 04:58:31;;;;;;;12.57;2.65;;;11.60;99.90;;;;;;5098540;28;20021;-64
2022/05/13 05:00:59;;;;;;;16.05;3.17;;;11.60;99.90;;;;;;5097275;28;20028;-64
2022/05/13 05:03:27;;;;;;;12.25;3.53;;;11.70;99.90;;;;;;5097932;28;20028;-63
2022/05/13 05:05:53;;;;;;;11.43;2.80;;;11.90;99.90;;;;;;5097632;28;20356;-63
2022/05/13 05:08:19;;;;;;;13.07;3.47;;;12.00;99.90;;;;;;5097764;28;20039;-63
2022/05/13 05:10:46;;;;;;;10.55;2.92;;;12.20;99.90;;;;;;5097735;28;20332;-62
2022/05/13 05:13:27;;;;;;;9.38;3.20;;;12.20;99.90;;;;;;5097978;28;20028;-63
2022/05/13 05:15:53;;;;;;;9.75;3.03;;;12.30;99.90;;;;;;5097734;28;20036;-64
2022/05/13 05:18:19;;;;;;;16.27;3.83;;;12.40;99.90;;;;;;5097904;28;20295;-64
2022/05/13 05:20:46;;;;;;;10.73;3.08;;;12.50;99.90;;;;;;5096849;28;20025;-65
2022/05/13 05:23:17;;;;;;;10.55;2.85;;;12.50;99.90;;;;;;5096788;28;20071;-66
2022/05/13 05:25:45;;;;;;;14.60;3.40;;;12.50;99.90;;;;;;5097501;28;20032;-67
2022/05/13 05:28:11;;;;;;;15.27;3.17;;;12.60;99.90;;;;;;5097898;28;20431;-63
2022/05/13 05:30:37;;;;;;;12.50;3.08;;;12.70;99.90;;;;;;5097446;28;20035;-64
2022/05/13 05:33:03;;;;;;;15.10;3.70;;;12.80;99.90;;;;;;5097440;28;20036;-67
2022/05/13 05:35:30;;;;;;;13.98;3.50;;;12.80;99.90;;;;;;5097364;28;20295;-65
2022/05/13 05:37:56;;;;;;;12.85;3.60;;;12.80;99.90;;;;;;5097303;28;20020;-64
2022/05/13 05:40:22;;;;;;;12.73;3.60;;;12.70;99.90;;;;;;5097339;28;20399;-64
2022/05/13 05:42:48;;;;;;;13.82;3.50;;;12.70;99.90;;;;;;5097117;28;20107;-64
2022/05/13 05:45:17;;;;;;;15.82;3.95;;;12.60;99.90;;;;;;5096580;28;20068;-64
2022/05/13 05:47:43;;;;;;;14.38;3.85;;;12.50;99.90;;;;;;5097222;28;20039;-66
2022/05/13 05:50:12;;;;;;;13.65;3.70;;;12.50;99.90;;;;;;5096233;28;20136;-67
2022/05/13 05:52:38;;;;;;;11.80;3.67;;;12.80;99.90;;;;;;5097137;28;20043;-65
2022/05/13 05:58:01;;;;;;;14.25;4.07;;;12.90;99.90;;;;;;5097080;28;20032;-65
2022/05/13 06:00:28;;;;;;;13.00;3.80;;;13.00;99.90;;;;;;5096362;28;20084;-67
2022/05/13 06:02:54;;;;;;;16.02;3.92;;;13.20;99.90;;;;;;5096163;28;20028;-66
2022/05/13 06:05:21;;;;;;;15.82;3.75;;;13.30;99.90;;;;;;5097088;28;20394;-66
2022/05/13 06:07:47;;;;;;;14.00;3.83;;;13.50;99.90;;;;;;5096458;28;20300;-65
2022/05/13 06:10:13;;;;;;;13.80;4.03;;;13.70;99.90;;;;;;5096971;28;20036;-62
2022/05/13 06:12:40;;;;;;;13.90;4.32;;;13.80;99.90;;;;;;5096159;28;20036;-66
2022/05/13 06:15:07;;;;;;;15.02;5.38;;;13.70;99.90;;;;;;5097160;28;20150;-64
2022/05/13 06:17:33;;;;;;;17.10;4.53;;;13.70;99.90;;;;;;5096908;28;20056;-65
2022/05/13 06:20:06;;;;;;;15.00;4.72;;;13.80;99.90;;;;;;5096086;28;20429;-62
2022/05/13 06:22:32;;;;;;;;;;;13.70;99.90;;;;;;5097375;28;20296;-63
2022/05/13 06:24:58;;;;;;;19.80;5.30;;;13.50;99.90;;;;;;5096868;28;20043;-63
2022/05/13 06:27:24;;;;;;;18.00;6.22;;;13.50;99.90;;;;;;5096074;28;20119;-63
2022/05/13 06:29:52;;;;;;;18.25;6.18;;;13.60;99.90;;;;;;5079415;28;20388;-61
2022/05/13 06:32:18;;;;;;;15.85;5.95;;;13.50;99.90;;;;;;5096673;28;20044;-60
2022/05/13 06:34:44;;;;;;;14.10;5.82;;;13.50;99.90;;;;;;5096707;28;20346;-64
2022/05/13 06:37:09;;;;;;;20.52;6.03;;;13.40;99.90;;;;;;5096737;28;20099;-62
2022/05/13 06:39:35;;;;;;;17.27;6.22;;;13.40;99.90;;;;;;5097027;28;20047;-63
2022/05/13 06:42:01;;;;;;;22.95;6.35;;;13.40;99.90;;;;;;5096698;28;20100;-63
2022/05/13 06:44:27;;;;;;;17.35;6.40;;;13.40;99.90;;;;;;5096644;28;20032;-62
2022/05/13 06:46:53;;;;;;;20.85;6.40;;;13.40;99.90;;;;;;5096631;28;20039;-63
2022/05/13 06:49:18;;;;;;;13.90;5.88;;;13.70;99.90;;;;;;5095457;28;20069;-61
2022/05/13 06:51:44;;;;;;;16.08;6.30;;;13.80;99.90;;;;;;5096916;28;20428;-61
2022/05/13 06:54:11;;;;;;;16.23;5.72;;;13.90;99.90;;;;;;5096630;28;20032;-63
2022/05/13 06:56:39;;;;;;;19.45;5.57;;;13.70;99.90;;;;;;5096537;28;20024;-62
2022/05/13 06:59:06;;;;;;;18.17;5.07;;;13.80;99.90;;;;;;5096484;28;20443;-62
2022/05/13 07:01:32;;;;;;;16.40;5.40;;;13.90;99.90;;;;;;5096617;28;20070;-62
2022/05/13 07:03:58;;;;;;;15.23;4.90;;;13.90;99.90;;;;;;5096454;28;20400;-64
2022/05/13 07:06:23;;;;;;;17.25;5.05;;;13.80;99.90;;;;;;5098668;28;20040;-62
2022/05/13 07:08:50;;;;;;;18.83;5.40;;;13.80;99.90;;;;;;5100182;28;20070;-64
2022/05/13 07:11:18;;;;;;;14.07;5.13;;;13.90;99.90;;;;;;5100178;28;20028;-60
2022/05/13 07:13:44;;;;;;;18.92;4.90;;;14.10;99.90;;;;;;5099433;28;20126;-62
2022/05/13 07:16:10;;;;;;;14.07;4.55;;;14.10;99.90;;;;;;5100590;28;20024;-62
2022/05/13 07:18:36;;;;;;;12.15;4.05;;;14.10;99.90;;;;;;5100014;28;20024;-62
2022/05/13 07:21:03;;;;;;;12.27;4.18;;;14.20;99.90;;;;;;5099950;28;20028;-61
2022/05/13 07:23:32;;;;;;;13.88;4.20;;;13.80;99.90;;;;;;5099922;28;20111;-62
2022/05/13 07:25:58;;;;;;;13.68;3.88;;;13.90;99.90;;;;;;5099886;28;20292;-61
2022/05/13 07:28:28;;;;;;;11.55;3.80;;;14.00;99.90;;;;;;5100065;28;20024;-63
2022/05/13 07:30:54;;;;;;;17.63;4.55;;;14.20;99.90;;;;;;5099755;28;20296;-62
2022/05/13 07:33:22;;;;;;;12.02;4.30;;;14.40;99.90;;;;;;5099646;28;20021;-62
2022/05/13 07:35:48;;;;;;;10.48;3.72;;;14.60;99.90;;;;;;5099618;28;20373;-62
2022/05/13 07:38:14;;;;;;;14.18;3.95;;;14.50;99.90;;;;;;5100209;28;20024;-62
2022/05/13 07:43:25;;;;;;;12.25;3.83;;;14.70;99.90;;;;;;5099574;28;20051;-60
2022/05/13 07:45:51;;;;;;;8.07;4.13;;;14.90;99.90;;;;;;5099458;28;20020;-61
2022/05/13 07:48:16;;;;;;;19.20;3.80;;;15.00;99.90;;;;;;5099925;28;20039;-61
2022/05/13 07:50:42;;;;;;;10.25;3.33;;;15.10;99.90;;;;;;5099090;28;20048;-66
2022/05/13 07:53:09;;;;;;;11.60;3.53;;;14.80;99.90;;;;;;5098706;28;20407;-61
2022/05/13 07:55:35;;;;;;;12.95;3.80;;;15.00;99.90;;;;;;5099357;28;20032;-61
2022/05/13 07:58:01;;;;;;;16.15;3.17;;;15.10;99.90;;;;;;5098638;28;20028;-61
2022/05/13 08:00:33;;;;;;;10.80;3.78;;;15.20;99.90;;;;;;5099226;28;20315;-62
2022/05/13 08:03:17;;;;;;;9.20;3.10;;;15.50;99.90;;;;;;5099160;28;20039;-62
2022/05/13 08:05:57;;;;;;;9.40;2.88;;;15.70;99.90;;;;;;5099062;28;20051;-62
2022/05/13 08:08:30;;;;;;;12.25;3.10;;;15.80;99.90;;;;;;5099774;28;20039;-65
2022/05/13 08:10:59;;;;;;;11.50;3.17;;;15.80;99.90;;;;;;5098984;28;20031;-63
2022/05/13 08:13:26;;;;;;;12.40;2.85;;;15.80;99.90;;;;;;5098879;28;20036;-64
2022/05/13 08:15:52;;;;;;;9.80;3.00;;;15.60;99.90;;;;;;5098952;28;20040;-63
2022/05/13 08:18:19;;;;;;;10.80;2.80;;;15.50;99.90;;;;;;5097653;28;20128;-61
2022/05/13 08:20:46;;;;;;;11.57;2.80;;;15.60;99.90;;;;;;5099019;28;20044;-61
2022/05/13 08:23:12;;;;;;;10.82;2.50;;;15.80;99.90;;;;;;5098095;28;20028;-60
2022/05/13 08:25:39;;;;;;;6.88;2.55;;;15.90;99.90;;;;;;5098976;28;20198;-61
2022/05/13 08:28:07;;;;;;;7.13;2.40;;;16.10;99.90;;;;;;5098060;28;20379;-62
2022/05/13 08:30:33;;;;;;;8.88;2.08;;;16.10;99.90;;;;;;5098766;28;20059;-62
2022/05/13 08:33:01;;;;;;;9.57;2.30;;;16.10;99.90;;;;;;5098566;28;20125;-66
2022/05/13 08:35:27;;;;;;;8.40;2.45;;;16.30;99.90;;;;;;5097994;28;20405;-62
2022/05/13 08:37:54;;;;;;;6.10;2.13;;;16.50;99.90;;;;;;5098558;28;20020;-64
2022/05/13 08:40:34;;;;;;;7.65;1.88;;;16.50;99.90;;;;;;5098752;28;20028;-63
2022/05/13 08:43:08;;;;;;;8.95;2.30;;;16.40;99.90;;;;;;5098356;28;20028;-59
2022/05/13 08:45:36;;;;;;;4.68;1.85;;;16.50;99.90;;;;;;5098335;28;20031;-64
2022/05/13 08:48:13;;;;;;;5.28;1.92;;;16.70;99.90;;;;;;5097618;28;20039;-62
2022/05/13 08:51:00;;;;;;;7.60;1.95;;;17.00;99.90;;;;;;5098206;28;20059;-62
2022/05/13 08:53:57;;;;;;;11.43;2.28;;;17.20;99.90;;;;;;5098271;28;20024;-59
2022/05/13 08:56:28;;;;;;;7.05;1.80;;;17.10;99.90;;;;;;5097681;28;20173;-63
2022/05/13 08:59:07;;;;;;;5.70;1.90;;;17.10;99.90;;;;;;5098076;28;20040;-63
2022/05/13 09:01:36;;;;;;;8.35;1.80;;;17.20;99.90;;;;;;5098444;28;20047;-61
2022/05/13 09:04:07;;;;;;;5.70;1.90;;;17.00;99.90;;;;;;5097335;28;20024;-62
2022/05/13 09:06:43;;;;;;;7.80;1.65;;;16.80;99.90;;;;;;5098274;28;20040;-62
2022/05/13 09:09:11;;;;;;;5.80;1.70;;;17.10;99.90;;;;;;5097954;28;20043;-65
2022/05/13 09:11:42;;;;;;;6.45;1.38;;;17.60;99.90;;;;;;5097024;28;20043;-60
2022/05/13 09:14:17;;;;;;;7.28;1.80;;;17.90;99.90;;;;;;5097923;28;20319;-61
2022/05/13 09:17:16;;;;;;;6.85;1.90;;;18.10;99.90;;;;;;5097798;28;20090;-63
2022/05/13 09:19:57;;;;;;;8.07;1.95;;;17.90;99.90;;;;;;5097847;28;20103;-60
2022/05/13 09:22:30;;;;;;;5.63;1.80;;;17.60;99.90;;;;;;5097927;28;20032;-60
2022/05/13 09:24:56;;;;;;;7.68;2.08;;;17.70;99.90;;;;;;5097707;28;20323;-62
2022/05/13 09:27:22;;;;;;;5.78;1.90;;;18.20;99.90;;;;;;5097693;28;20031;-60
2022/05/13 09:29:48;;;;;;;5.45;1.73;;;18.40;99.90;;;;;;5096285;28;20119;-63
2022/05/13 09:32:26;;;;;;;5.60;2.42;;;18.50;99.90;;;;;;5097549;28;20047;-66
2022/05/13 09:35:05;;;;;;;7.05;1.60;;;18.60;99.90;;;;;;5097514;28;20020;-64
2022/05/13 09:37:39;;;;;;;6.47;1.98;;;18.20;99.90;;;;;;5097502;28;20028;-63
2022/05/13 09:40:07;;;;;;;6.93;1.95;;;18.00;99.90;;;;;;5097343;28;20024;-62
2022/05/13 09:42:41;;;;;;;8.98;2.10;;;17.90;99.90;;;;;;5097307;28;20046;-64
2022/05/13 09:45:26;;;;;;;4.97;2.30;;;17.80;99.90;;;;;;5097302;28;20177;-59
2022/05/13 09:48:08;;;;;;;6.57;1.88;;;17.90;99.90;;;;;;5096640;28;20036;-64
2022/05/13 09:50:42;;;;;;;4.10;1.98;;;18.20;99.90;;;;;;5097134;28;20044;-62
2022/05/13 09:53:25;;;;;;;7.25;2.05;;;18.30;99.90;;;;;;5097225;28;20040;-61
2022/05/13 09:55:57;;;;;;;9.98;1.92;;;18.30;99.90;;;;;;5097169;28;20024;-61
2022/05/13 09:58:32;;;;;;;5.55;2.05;;;18.30;99.90;;;;;;5097236;28;20097;-62
2022/05/13 10:01:04;;;;;;;5.47;2.15;;;18.50;99.90;;;;;;5097320;28;20024;-60
2022/05/13 10:03:36;;;;;;;4.38;2.22;;;18.60;99.90;;;;;;5097133;28;20380;-66
2022/05/13 10:06:11;;;;;;;6.05;2.08;;;18.80;99.90;;;;;;5096287;28;20028;-62
2022/05/13 10:08:47;;;;;;;6.95;2.47;;;18.70;99.90;;;;;;5097067;28;20392;-60
2022/05/13 10:14:05;;;;;;;4.88;2.22;;;18.50;99.90;;;;;;5097034;28;20032;-66
2022/05/13 10:16:43;;;;;;;5.47;2.10;;;18.40;99.90;;;;;;5096665;28;20032;-60
2022/05/13 10:19:15;;;;;;;4.97;2.20;;;18.20;99.90;;;;;;5096895;28;20024;-63
2022/05/13 10:21:51;;;;;;;6.38;2.05;;;18.10;99.90;;;;;;5096820;28;20028;-63
2022/05/13 10:24:29;;;;;;;5.18;2.00;;;18.10;99.90;;;;;;5096851;28;20108;-65
2022/05/13 10:26:56;;;;;;;6.28;2.60;;;18.80;99.90;;;;;;5096796;28;20027;-64
2022/05/13 10:29:25;;;;;;;6.55;2.05;;;19.00;99.90;;;;;;5096849;28;20028;-63
2022/05/13 10:31:51;;;;;;;4.50;2.05;;;18.80;99.90;;;;;;5096550;28;20036;-62
2022/05/13 10:34:38;;;;;;;9.10;2.83;;;18.20;99.90;;;;;;5096850;28;20296;-62
2022/05/13 10:37:14;;;;;;;6.35;2.30;;;17.70;99.90;;;;;;5096142;28;20028;-62
2022/05/13 10:39:53;;;;;;;6.38;2.53;;;17.70;99.90;;;;;;5096049;28;20047;-62
2022/05/13 10:42:44;;;;;;;5.93;2.50;;;17.60;99.90;;;;;;5101004;28;20032;-63
2022/05/13 10:45:22;;;;;;;9.90;2.63;;;17.90;99.90;;;;;;5100705;28;20040;-62
2022/05/13 10:47:54;;;;;;;5.88;2.22;;;18.40;99.90;;;;;;5100941;28;20353;-61
2022/05/13 10:50:22;;;;;;;;;;;18.70;99.90;;;;;;5100125;28;20307;-63
2022/05/13 10:53:12;;;;;;;7.68;2.42;;;18.90;99.90;;;;;;5100700;28;19938;-61
2022/05/13 10:55:38;;;;;;;5.45;2.40;;;19.30;99.90;;;;;;5091216;28;20040;-63
2022/05/13 10:58:40;;;;;;;9.57;2.35;;;18.80;99.90;;;;;;5100471;28;20043;-61
2022/05/13 11:01:32;;;;;;;6.57;2.67;;;18.50;99.90;;;;;;5100634;28;20400;-63
2022/05/13 11:04:19;;;;;;;7.28;2.67;;;18.60;99.90;;;;;;5100449;28;20039;-63
2022/05/13 11:07:08;;;;;;;6.15;2.55;;;18.50;99.90;;;;;;5100362;28;20024;-62
2022/05/13 11:09:55;;;;;;;4.63;2.50;;;19.10;99.90;;;;;;5099439;28;20296;-61
2022/05/13 11:12:51;;;;;;;4.55;2.42;;;19.60;99.90;;;;;;5100640;28;20460;-62
2022/05/13 11:15:47;;;;;;;5.90;2.42;;;19.30;99.90;;;;;;5100558;28;20343;-65
2022/05/13 11:18:35;;;;;;;8.77;2.58;;;19.20;99.90;;;;;;5100258;28;20028;-65
2022/05/13 11:21:13;;;;;;;9.82;2.67;;;19.50;99.90;;;;;;5100142;28;20032;-68
2022/05/13 11:27:22;;;;;;;8.88;2.78;;;19.60;99.90;;;;;;5038352;28;20405;-62
2022/05/13 11:30:02;;;;;;;7.80;3.13;;;19.40;99.90;;;;;;5038308;28;20125;-61
2022/05/13 11:32:47;;;;;;;4.65;1.80;;;19.70;99.90;;;;;;5089509;28;20036;-62
2022/05/13 11:35:31;;;;;;;9.57;1.58;;;19.50;99.90;;;;;;5100269;28;20410;-61
2022/05/13 11:38:05;;;;;;;3.72;1.42;;;19.80;99.90;;;;;;5099771;28;20066;-62
2022/05/13 11:40:48;;;;;;;4.30;1.70;;;19.60;99.90;;;;;;5099698;28;20032;-63
2022/05/13 11:43:30;;;;;;;3.63;1.20;;;19.30;99.90;;;;;;5099443;28;20032;-61
2022/05/13 11:46:01;;;;;;;4.22;1.30;;;19.20;99.90;;;;;;5099877;28;20047;-65
2022/05/13 11:48:53;;;;;;;3.53;1.30;;;19.80;99.90;;;;;;5099575;28;20109;-62
2022/05/13 11:51:28;;;;;;;7.47;1.58;;;20.10;99.90;;;;;;5098032;28;20116;-65
2022/05/13 11:54:00;;;;;;;7.05;1.83;;;19.90;99.90;;;;;;5099136;28;20024;-63
2022/05/13 11:56:31;;;;;;;5.75;1.50;;;20.10;99.90;;;;;;5099557;28;20072;-62
2022/05/13 11:59:11;;;;;;;5.78;1.30;;;20.20;99.90;;;;;;5099301;28;20032;-61
2022/05/13 12:01:37;;;;;;;6.03;1.52;;;20.40;99.90;;;;;;5099565;28;20039;-65
2022/05/13 12:04:30;;;;;;;5.20;1.20;;;20.80;99.90;;;;;;5099292;28;20036;-64
2022/05/13 12:07:00;;;;;;;4.68;1.35;;;21.60;99.90;;;;;;5078846;28;20043;-65
2022/05/13 12:09:45;;;;;;;6.35;1.35;;;22.00;99.90;;;;;;5099207;28;20040;-62
2022/05/13 12:12:16;;;;;;;6.30;1.40;;;21.30;99.90;;;;;;5099004;28;20040;-62
2022/05/13 12:14:57;;;;;;;3.72;1.20;;;21.00;99.90;;;;;;5099628;28;20050;-63
2022/05/13 12:17:44;;;;;;;5.30;1.25;;;22.30;99.90;;;;;;5099168;28;20024;-61
2022/05/13 12:20:34;;;;;;;6.82;1.33;;;23.90;99.90;;;;;;5098950;28;20016;-64
2022/05/13 12:23:12;;;;;;;4.00;1.48;;;23.10;99.90;;;;;;5098866;28;20055;-63
2022/05/13 12:25:38;;;;;;;5.00;1.35;;;22.30;99.90;;;;;;5098816;28;20102;-61
2022/05/13 12:28:15;;;;;;;4.28;1.40;;;22.20;99.90;;;;;;5098720;28;20355;-61
2022/05/13 12:30:50;;;;;;;7.28;1.30;;;22.20;99.90;;;;;;5099167;28;20105;-61
2022/05/13 12:33:26;;;;;;;11.98;1.58;;;21.40;99.90;;;;;;5097793;28;20119;-64
2022/05/13 12:39:21;;;;;;;5.32;1.10;;;23.40;99.90;;;;;;5097856;28;20028;-63
2022/05/13 12:42:10;;;;;;;9.25;1.50;;;24.30;98.30;;;;;;5085671;28;20119;-62
2022/05/13 12:44:55;;;;;;;7.00;1.30;;;23.80;98.20;;;;;;5098859;28;20174;-62
2022/05/13 12:47:22;;;;;;;5.93;1.30;;;23.50;98.70;;;;;;5098430;28;20128;-66
2022/05/13 12:49:48;;;;;;;3.90;1.15;;;23.80;97.80;;;;;;5098171;28;20048;-67
2022/05/13 12:52:21;;;;;;;3.13;1.30;;;23.60;97.80;;;;;;5098166;28;20039;-67
2022/05/13 12:55:12;;;;;;;5.38;1.40;;;23.30;98.00;;;;;;5098846;28;20374;-63
2022/05/13 12:57:44;;;;;;;3.83;1.30;;;23.90;97.90;;;;;;5086543;28;20036;-61
2022/05/13 13:00:19;;;;;;;7.20;1.55;;;23.80;97.20;;;;;;5098156;28;20414;-62
2022/05/13 13:02:50;;;;;;;7.45;1.23;;;24.40;96.90;;;;;;5098095;28;20419;-62
2022/05/13 13:05:29;;;;;;;6.65;1.15;;;25.40;95.40;;;;;;5098444;28;20109;-62
2022/05/13 13:08:01;;;;;;;4.18;1.10;;;25.70;94.00;;;;;;5098067;28;20099;-63
2022/05/13 13:10:27;;;;;;;6.97;1.20;;;25.30;93.40;;;;;;5098475;28;20096;-62
2022/05/13 13:13:13;;;;;;;5.07;1.30;;;23.90;95.10;;;;;;5097810;28;20032;-62
2022/05/13 13:15:52;;;;;;;4.38;1.10;;;23.20;96.20;;;;;;5098288;28;20038;-60
2022/05/13 13:18:35;;;;;;;6.05;1.23;;;23.30;96.80;;;;;;5097908;28;20024;-66
2022/05/13 13:21:09;;;;;;;3.88;1.50;;;24.00;95.50;;;;;;5097789;28;20027;-63
2022/05/13 13:23:43;;;;;;;7.65;1.45;;;24.40;94.90;;;;;;5097845;28;20040;-60
2022/05/13 13:26:13;;;;;;;5.32;1.13;;;24.40;94.80;;;;;;5097630;28;20425;-66